createdAt,value
2024-03-05T00:00:30.524Z,62.26
2024-03-05T00:03:00.408Z,62.25
2024-03-05T00:05:30.970Z,62.37
2024-03-05T00:08:00.967Z,62.43
2024-03-05T00:10:33.314Z,62.34
2024-03-05T00:13:04.444Z,62.41
2024-03-05T00:15:35.250Z,62.49
2024-03-05T00:18:05.754Z,62.12
2024-03-05T00:20:36.616Z,62.08
2024-03-05T00:23:06.401Z,62.00
2024-03-05T00:25:36.229Z,62.17
2024-03-05T00:28:06.448Z,62.28
2024-03-05T00:30:36.226Z,62.55
2024-03-05T00:33:07.722Z,62.70
2024-03-05T00:35:37.751Z,62.98
2024-03-05T00:38:09.821Z,62.71
2024-03-05T00:40:45.862Z,62.76
2024-03-05T00:43:16.182Z,62.69
2024-03-05T00:45:47.564Z,62.80
2024-03-05T00:48:17.392Z,62.91
2024-03-05T00:50:47.850Z,63.19
2024-03-05T00:53:17.723Z,63.17
2024-03-05T00:55:47.746Z,63.21
2024-03-05T00:58:17.830Z,63.19
2024-03-05T01:00:48.368Z,63.32
2024-03-05T01:03:18.538Z,63.53
2024-03-05T01:05:48.342Z,63.26
2024-03-05T01:08:18.519Z,63.32
2024-03-05T01:10:48.477Z,63.36
2024-03-05T01:13:20.766Z,63.33
2024-03-05T01:15:51.388Z,63.21
2024-03-05T01:18:21.821Z,63.01
2024-03-05T01:20:51.748Z,62.92
2024-03-05T01:23:21.733Z,62.94
2024-03-05T01:25:51.829Z,63.27
2024-03-05T01:28:21.930Z,63.13
2024-03-05T01:30:51.679Z,63.54
2024-03-05T01:33:21.957Z,63.44
2024-03-05T01:35:53.123Z,63.43
2024-03-05T01:38:23.434Z,63.38
2024-03-05T01:40:54.144Z,63.54
2024-03-05T01:43:23.887Z,63.51
2024-03-05T01:45:54.438Z,63.29
2024-03-05T01:48:24.365Z,63.20
2024-03-05T01:50:54.088Z,63.20
2024-03-05T01:53:23.849Z,63.28
2024-03-05T01:55:54.497Z,63.34
2024-03-05T01:58:24.492Z,63.65
2024-03-05T02:00:54.413Z,63.77
2024-03-05T02:03:24.306Z,64.13
2024-03-05T02:05:54.935Z,63.86
2024-03-05T02:08:25.689Z,63.80
2024-03-05T02:10:55.670Z,63.80
2024-03-05T02:13:26.519Z,63.74
2024-03-05T02:15:56.387Z,63.88
2024-03-05T02:18:27.338Z,64.08
2024-03-05T13:36:47.829Z,49.13
2024-03-05T13:39:23.218Z,48.78
2024-03-05T13:41:54.839Z,49.34
2024-03-05T13:44:25.341Z,49.66
2024-03-05T13:46:55.259Z,49.50
2024-03-05T13:49:25.681Z,49.72
2024-03-05T13:51:55.978Z,49.29
2024-03-05T13:54:26.026Z,49.12
2024-03-05T13:56:55.900Z,48.97
2024-03-05T13:59:25.962Z,49.10
2024-03-05T14:01:56.775Z,49.38
2024-03-05T14:04:26.764Z,49.80
2024-03-05T14:06:56.773Z,49.95
2024-03-05T14:09:27.580Z,49.55
2024-03-05T14:11:58.403Z,48.91
2024-03-05T14:14:28.525Z,48.38
2024-03-05T14:16:58.384Z,49.25
2024-03-05T14:19:29.692Z,48.90
2024-03-05T14:22:01.617Z,49.12
2024-03-05T14:24:31.685Z,49.54
2024-03-05T14:27:01.875Z,49.60
2024-03-05T14:29:31.769Z,49.73
2024-03-05T14:32:01.648Z,49.19
2024-03-05T14:34:31.574Z,49.52
2024-03-05T14:37:01.870Z,49.32
2024-03-05T14:39:32.031Z,49.70
2024-03-05T14:42:02.179Z,49.46
2024-03-05T14:44:32.122Z,49.53
2024-03-05T14:47:02.461Z,49.65
2024-03-05T14:49:32.943Z,49.32
2024-03-05T14:52:02.812Z,48.91
2024-03-05T14:54:32.836Z,48.98
2024-03-05T14:57:02.770Z,49.57
2024-03-05T14:59:33.002Z,49.95
2024-03-05T15:02:03.128Z,49.87
2024-03-05T15:04:33.536Z,49.98
2024-03-05T15:07:04.227Z,50.03
2024-03-05T15:09:36.779Z,50.28
2024-03-05T15:12:10.941Z,50.30
2024-03-05T15:14:43.498Z,50.27
2024-03-05T15:17:14.121Z,50.40
2024-03-05T15:19:43.982Z,50.50
2024-03-05T15:22:13.950Z,49.74
2024-03-05T15:24:44.143Z,49.48
2024-03-05T15:27:14.401Z,49.45
2024-03-05T15:29:44.299Z,49.61
2024-03-05T15:32:14.465Z,50.22
2024-03-05T15:34:44.558Z,50.80
2024-03-05T15:37:15.321Z,51.08
2024-03-05T15:39:45.486Z,50.74
2024-03-05T15:42:15.456Z,50.80
2024-03-05T15:44:45.509Z,51.00
2024-03-05T15:47:15.466Z,51.29
2024-03-05T15:49:45.471Z,50.99
2024-03-05T15:52:15.533Z,50.22
2024-03-05T15:54:45.548Z,50.22
2024-03-05T15:57:20.952Z,50.13
2024-03-05T16:00:16.733Z,50.14
2024-03-05T16:02:47.299Z,50.80
2024-03-05T16:05:26.066Z,51.22
2024-03-05T16:08:02.411Z,51.42
2024-03-05T16:10:38.739Z,51.82
2024-03-05T16:13:15.390Z,51.71
2024-03-05T16:15:47.603Z,50.88
2024-03-05T16:18:17.699Z,50.77
2024-03-05T16:20:49.112Z,50.92
2024-03-05T16:23:19.098Z,51.02
2024-03-05T16:25:49.170Z,51.59
2024-03-05T16:28:19.289Z,51.83
2024-03-05T16:30:49.411Z,52.29
2024-03-05T16:33:19.473Z,52.37
2024-03-05T16:35:50.391Z,52.30
2024-03-05T16:38:20.269Z,51.54
2024-03-05T16:40:50.260Z,51.46
2024-03-05T16:43:20.487Z,51.31
2024-03-05T16:45:50.381Z,51.50
2024-03-05T16:48:20.550Z,52.27
2024-03-05T16:50:50.565Z,52.48
2024-03-05T16:53:20.981Z,52.25
2024-03-05T16:55:50.847Z,52.04
2024-03-05T16:58:20.715Z,51.95
2024-03-05T17:00:56.228Z,51.86
2024-03-05T17:03:30.579Z,52.41
2024-03-05T17:06:02.867Z,52.64
2024-03-05T17:08:33.206Z,52.94
2024-03-05T17:11:10.376Z,52.93
2024-03-05T17:13:42.778Z,53.09
2024-03-05T17:16:12.917Z,52.75
2024-03-05T17:18:42.784Z,52.52
2024-03-05T17:21:13.342Z,52.27
2024-03-05T17:23:47.681Z,52.24
2024-03-05T17:26:18.045Z,52.64
2024-03-05T17:28:48.051Z,53.20
2024-03-05T17:31:17.949Z,53.23
2024-03-05T20:07:23.887Z,57.07
2024-03-05T20:09:55.973Z,57.09
2024-03-05T20:12:27.621Z,57.07
2024-03-05T20:15:10.094Z,56.99
2024-03-05T20:17:44.512Z,57.14
2024-03-05T20:20:18.960Z,57.18
